sensor_id;sensor_type;location;lat;lon;timestamp;P1;durP1;ratioP1;P2;durP2;ratioP2
75035;SDS011;63605;52.096;5.214;2022-09-17T16:13:21;2.70;;;0.80;;
75035;SDS011;63605;52.096;5.214;2022-09-17T16:13:31;3.53;;;0.93;;
75035;SDS011;63605;52.096;5.214;2022-09-17T16:13:45;4.03;;;1.00;;
75035;SDS011;63605;52.096;5.214;2022-09-17T16:14:02;4.25;;;1.35;;
75035;SDS011;63605;52.096;5.214;2022-09-17T16:14:13;3.75;;;1.35;;
75035;SDS011;63605;52.096;5.214;2022-09-17T16:14:24;3.88;;;1.10;;
75035;SDS011;63605;52.096;5.214;2022-09-17T16:14:34;2.97;;;1.10;;
75035;SDS011;63605;52.096;5.214;2022-09-17T16:14:46;2.75;;;0.98;;
75035;SDS011;63605;52.096;5.214;2022-09-17T16:15:04;2.17;;;0.82;;
75035;SDS011;63605;52.096;5.214;2022-09-17T16:15:16;1.83;;;0.90;;
75035;SDS011;63605;52.096;5.214;2022-09-17T16:15:27;2.60;;;1.10;;
75035;SDS011;63605;52.096;5.214;2022-09-17T16:15:38;2.58;;;0.82;;
75035;SDS011;63605;52.096;5.214;2022-09-17T16:15:50;3.17;;;0.80;;
75035;SDS011;63605;52.096;5.214;2022-09-17T16:16:01;3.17;;;0.70;;
75035;SDS011;63605;52.096;5.214;2022-09-17T16:16:13;4.60;;;1.13;;
75035;SDS011;63605;52.096;5.214;2022-09-17T16:16:33;4.85;;;1.48;;
75035;SDS011;63605;52.096;5.214;2022-09-17T16:16:47;2.00;;;0.82;;
75035;SDS011;63605;52.096;5.214;2022-09-17T16:16:57;1.10;;;0.63;;
75035;SDS011;63605;52.096;5.214;2022-09-17T16:17:24;2.95;;;1.20;;
75035;SDS011;63605;52.096;5.214;2022-09-17T16:17:51;2.30;;;0.85;;
75035;SDS011;63605;52.096;5.214;2022-09-17T16:18:02;2.10;;;0.93;;
75035;SDS011;63605;52.096;5.214;2022-09-17T16:18:13;2.90;;;0.90;;
75035;SDS011;63605;52.096;5.214;2022-09-17T16:18:24;2.97;;;0.82;;
75035;SDS011;63605;52.096;5.214;2022-09-17T16:18:36;3.78;;;0.80;;
75035;SDS011;63605;52.096;5.214;2022-09-17T16:18:48;3.58;;;0.90;;
75035;SDS011;63605;52.096;5.214;2022-09-17T16:19:00;3.78;;;0.93;;
75035;SDS011;63605;52.096;5.214;2022-09-17T16:19:13;3.20;;;1.10;;
75035;SDS011;63605;52.096;5.214;2022-09-17T16:19:24;3.35;;;1.02;;
75035;SDS011;63605;52.096;5.214;2022-09-17T16:19:36;2.92;;;0.85;;
75035;SDS011;63605;52.096;5.214;2022-09-17T16:19:46;2.85;;;0.73;;
75035;SDS011;63605;52.096;5.214;2022-09-17T16:19:59;3.25;;;0.93;;
75035;SDS011;63605;52.096;5.214;2022-09-17T16:20:21;4.07;;;1.08;;
75035;SDS011;63605;52.096;5.214;2022-09-17T16:20:34;2.88;;;0.90;;
75035;SDS011;63605;52.096;5.214;2022-09-17T16:20:45;2.03;;;0.98;;
75035;SDS011;63605;52.096;5.214;2022-09-17T16:20:56;2.50;;;0.93;;
75035;SDS011;63605;52.096;5.214;2022-09-17T16:21:09;3.05;;;0.80;;
75035;SDS011;63605;52.096;5.214;2022-09-17T16:21:21;2.60;;;0.83;;
75035;SDS011;63605;52.096;5.214;2022-09-17T16:21:32;1.90;;;0.90;;
75035;SDS011;63605;52.096;5.214;2022-09-17T16:21:43;2.00;;;1.10;;
75035;SDS011;63605;52.096;5.214;2022-09-17T16:21:54;3.05;;;1.20;;
75035;SDS011;63605;52.096;5.214;2022-09-17T16:22:04;3.03;;;1.27;;
75035;SDS011;63605;52.096;5.214;2022-09-17T16:22:15;2.67;;;1.08;;
75035;SDS011;63605;52.096;5.214;2022-09-17T16:22:26;3.03;;;0.90;;
75035;SDS011;63605;52.096;5.214;2022-09-17T16:22:38;4.90;;;0.98;;
75035;SDS011;63605;52.096;5.214;2022-09-17T16:22:50;5.13;;;1.00;;
75035;SDS011;63605;52.096;5.214;2022-09-17T16:23:02;3.35;;;0.90;;
75035;SDS011;63605;52.096;5.214;2022-09-17T16:23:13;2.72;;;0.88;;
75035;SDS011;63605;52.096;5.214;2022-09-17T16:23:24;2.40;;;0.90;;
75035;SDS011;63605;52.096;5.214;2022-09-17T16:23:35;3.77;;;1.10;;
75035;SDS011;63605;52.096;5.214;2022-09-17T16:23:46;6.20;;;1.20;;
75035;SDS011;63605;52.096;5.214;2022-09-17T16:23:57;6.57;;;1.10;;
75035;SDS011;63605;52.096;5.214;2022-09-17T16:24:08;5.15;;;0.77;;
75035;SDS011;63605;52.096;5.214;2022-09-17T16:24:19;4.97;;;0.90;;
75035;SDS011;63605;52.096;5.214;2022-09-17T16:24:30;4.82;;;1.00;;
75035;SDS011;63605;52.096;5.214;2022-09-17T16:24:40;4.70;;;0.95;;
75035;SDS011;63605;52.096;5.214;2022-09-17T16:24:51;2.70;;;0.90;;
75035;SDS011;63605;52.096;5.214;2022-09-17T16:25:02;2.93;;;1.00;;
75035;SDS011;63605;52.096;5.214;2022-09-17T16:25:15;3.15;;;1.30;;
75035;SDS011;63605;52.096;5.214;2022-09-17T16:25:28;2.72;;;1.20;;
75035;SDS011;63605;52.096;5.214;2022-09-17T16:25:39;2.65;;;1.00;;
75035;SDS011;63605;52.096;5.214;2022-09-17T16:25:51;2.90;;;1.00;;
75035;SDS011;63605;52.096;5.214;2022-09-17T16:26:02;2.67;;;1.00;;
75035;SDS011;63605;52.096;5.214;2022-09-17T16:26:18;2.08;;;0.88;;
75035;SDS011;63605;52.096;5.214;2022-09-17T16:26:35;2.53;;;0.95;;
75035;SDS011;63605;52.096;5.214;2022-09-17T16:26:47;4.05;;;1.00;;
75035;SDS011;63605;52.096;5.214;2022-09-17T16:26:58;4.80;;;1.00;;
75035;SDS011;63605;52.096;5.214;2022-09-17T16:27:11;5.77;;;1.00;;
75035;SDS011;63605;52.096;5.214;2022-09-17T16:27:31;3.45;;;1.17;;
75035;SDS011;63605;52.096;5.214;2022-09-17T16:28:11;2.95;;;1.17;;
75035;SDS011;63605;52.096;5.214;2022-09-17T16:28:28;3.70;;;1.02;;
75035;SDS011;63605;52.096;5.214;2022-09-17T16:28:40;4.82;;;0.93;;
75035;SDS011;63605;52.096;5.214;2022-09-17T16:28:53;4.65;;;1.00;;
75035;SDS011;63605;52.096;5.214;2022-09-17T16:29:14;3.20;;;0.85;;
75035;SDS011;63605;52.096;5.214;2022-09-17T16:29:28;2.28;;;0.98;;
75035;SDS011;63605;52.096;5.214;2022-09-17T16:29:39;1.90;;;1.27;;
75035;SDS011;63605;52.096;5.214;2022-09-17T16:29:50;2.30;;;1.20;;
75035;SDS011;63605;52.096;5.214;2022-09-17T16:30:12;3.45;;;1.33;;
75035;SDS011;63605;52.096;5.214;2022-09-17T16:30:27;4.07;;;1.30;;
75035;SDS011;63605;52.096;5.214;2022-09-17T16:30:43;5.27;;;1.27;;
75035;SDS011;63605;52.096;5.214;2022-09-17T16:30:57;4.97;;;1.23;;
75035;SDS011;63605;52.096;5.214;2022-09-17T16:31:10;3.05;;;1.33;;
75035;SDS011;63605;52.096;5.214;2022-09-17T16:31:23;2.42;;;1.10;;
75035;SDS011;63605;52.096;5.214;2022-09-17T16:31:38;3.10;;;1.08;;
75035;SDS011;63605;52.096;5.214;2022-09-17T16:31:51;3.30;;;0.93;;
75035;SDS011;63605;52.096;5.214;2022-09-17T16:32:02;4.20;;;1.02;;
75035;SDS011;63605;52.096;5.214;2022-09-17T16:32:13;5.00;;;1.20;;
75035;SDS011;63605;52.096;5.214;2022-09-17T16:32:24;4.53;;;1.40;;
75035;SDS011;63605;52.096;5.214;2022-09-17T16:32:35;3.45;;;1.30;;
75035;SDS011;63605;52.096;5.214;2022-09-17T16:32:46;3.60;;;1.38;;
75035;SDS011;63605;52.096;5.214;2022-09-17T16:32:57;4.50;;;1.15;;
75035;SDS011;63605;52.096;5.214;2022-09-17T16:33:10;2.63;;;0.80;;
75035;SDS011;63605;52.096;5.214;2022-09-17T16:33:25;1.45;;;0.90;;
75035;SDS011;63605;52.096;5.214;2022-09-17T16:33:37;2.80;;;1.10;;
75035;SDS011;63605;52.096;5.214;2022-09-17T16:33:48;4.05;;;1.05;;
75035;SDS011;63605;52.096;5.214;2022-09-17T16:34:00;4.22;;;1.10;;
75035;SDS011;63605;52.096;5.214;2022-09-17T16:34:11;3.63;;;1.08;;
75035;SDS011;63605;52.096;5.214;2022-09-17T16:34:22;2.88;;;0.93;;
75035;SDS011;63605;52.096;5.214;2022-09-17T16:34:32;2.23;;;0.80;;
75035;SDS011;63605;52.096;5.214;2022-09-17T16:34:43;3.17;;;1.10;;
75035;SDS011;63605;52.096;5.214;2022-09-17T16:34:54;3.35;;;1.20;;
